Terminal Aerodrome Forecast
Issued by NWS

Home | Current Version | Previous Version | Text Only | Print | Product List | Glossary On
Versions: 1 2 3 4 5 6 7 8 9 10 11 12 13 14 15 16 17 18
000
FTUS45 KSLC 202349
TAFEVW
TAF
KEVW 202349Z 2100/2124 12007KT P6SM FEW040 BKN080
     FM210200 11007KT P6SM VCSH SCT025 BKN050
     FM211500 25007KT 2SM -SHSN SCT005 BKN015=

USA.gov is the U.S. government's official web portal to all federal, state and local government web resources and services.